createdAt,value
2019-05-07T00:00:08.414Z,992.49
2019-05-07T00:01:08.413Z,992.45
2019-05-07T00:02:08.396Z,992.45
2019-05-07T00:03:08.380Z,992.49
2019-05-07T00:04:08.367Z,992.43
2019-05-07T00:05:08.359Z,992.40
2019-05-07T00:06:08.369Z,992.43
2019-05-07T00:07:08.388Z,992.45
2019-05-07T00:08:08.350Z,992.46
2019-05-07T00:09:08.322Z,992.48
2019-05-07T00:10:08.307Z,992.43
2019-05-07T00:11:08.311Z,992.46
2019-05-07T00:12:08.285Z,992.44
2019-05-07T00:13:08.289Z,992.45
2019-05-07T00:14:08.276Z,992.46
2019-05-07T00:15:08.256Z,992.43
2019-05-07T00:16:08.264Z,992.45
2019-05-07T00:17:08.242Z,992.38
2019-05-07T00:18:08.226Z,992.41
2019-05-07T00:19:08.215Z,992.41
2019-05-07T00:20:08.208Z,992.41
2019-05-07T00:21:08.195Z,992.39
2019-05-07T00:22:08.194Z,992.35
2019-05-07T00:23:08.179Z,992.35
2019-05-07T00:24:08.163Z,992.38
2019-05-07T00:25:08.168Z,992.37
2019-05-07T00:26:08.153Z,992.35
2019-05-07T00:27:08.156Z,992.31
2019-05-07T00:28:08.121Z,992.33
2019-05-07T00:29:08.123Z,992.40
2019-05-07T00:30:08.093Z,992.36
2019-05-07T00:31:08.081Z,992.33
2019-05-07T00:32:08.083Z,992.36
2019-05-07T00:33:08.070Z,992.37
2019-05-07T00:34:08.063Z,992.34
2019-05-07T00:35:08.080Z,992.33
2019-05-07T00:36:08.068Z,992.37
2019-05-07T00:37:08.044Z,992.34
2019-05-07T00:38:08.030Z,992.36
2019-05-07T00:39:08.004Z,992.33
2019-05-07T00:40:08.001Z,992.36
2019-05-07T00:41:07.991Z,992.29
2019-05-07T00:42:08.029Z,992.34
2019-05-07T00:43:07.955Z,992.30
2019-05-07T00:44:07.962Z,992.32
2019-05-07T00:45:16.814Z,992.32
2019-05-07T00:46:08.932Z,992.38
2019-05-07T00:47:07.958Z,992.34
2019-05-07T00:48:07.903Z,992.37
2019-05-07T00:49:07.898Z,992.37
2019-05-07T00:50:07.882Z,992.38
2019-05-07T00:51:07.875Z,992.35
2019-05-07T00:52:07.884Z,992.35
2019-05-07T00:53:07.861Z,992.28
2019-05-07T00:54:07.856Z,992.34
2019-05-07T00:55:07.827Z,992.29
2019-05-07T00:56:07.818Z,992.35
2019-05-07T00:57:07.832Z,992.34
2019-05-07T00:58:07.796Z,992.31
2019-05-07T00:59:07.801Z,992.33
2019-05-07T01:00:07.783Z,992.32
2019-05-07T01:01:07.769Z,992.32
2019-05-07T01:02:07.771Z,992.33
2019-05-07T01:03:07.752Z,992.29
2019-05-07T01:04:07.745Z,992.32
2019-05-07T01:05:07.721Z,992.31
2019-05-07T01:06:07.715Z,992.31
2019-05-07T01:07:07.738Z,992.35
2019-05-07T01:08:07.699Z,992.34
2019-05-07T01:09:07.697Z,992.34
2019-05-07T01:10:07.682Z,992.31
2019-05-07T01:11:07.663Z,992.30
2019-05-07T01:12:07.697Z,992.29
2019-05-07T01:13:07.643Z,992.32
2019-05-07T01:14:07.634Z,992.29
2019-05-07T01:15:07.615Z,992.30
2019-05-07T01:16:07.630Z,992.27
2019-05-07T01:17:07.615Z,992.29
2019-05-07T01:18:07.585Z,992.28
2019-05-07T01:19:07.584Z,992.30
2019-05-07T01:20:07.564Z,992.30
2019-05-07T01:21:08.187Z,992.26
2019-05-07T01:22:07.568Z,992.30
2019-05-07T01:23:07.578Z,992.29
2019-05-07T01:24:07.539Z,992.29
2019-05-07T01:25:07.518Z,992.26
2019-05-07T01:26:07.511Z,992.24
2019-05-07T01:27:07.493Z,992.26
2019-05-07T01:28:07.498Z,992.27
2019-05-07T01:29:07.486Z,992.23
2019-05-07T01:30:07.465Z,992.27
2019-05-07T01:31:07.487Z,992.21
2019-05-07T01:32:07.447Z,992.21
2019-05-07T01:33:07.443Z,992.24
2019-05-07T01:34:07.467Z,992.22
2019-05-07T01:35:07.451Z,992.25
2019-05-07T01:36:07.400Z,992.24
2019-05-07T01:37:07.395Z,992.25
2019-05-07T01:38:07.396Z,992.26
2019-05-07T01:39:07.365Z,992.31
2019-05-07T01:40:07.401Z,992.30
2019-05-07T01:41:07.365Z,992.27
2019-05-07T01:42:07.366Z,992.29
2019-05-07T01:43:07.350Z,992.29
2019-05-07T01:44:07.320Z,992.32
2019-05-07T01:45:07.348Z,992.30
2019-05-07T01:46:07.290Z,992.25
2019-05-07T01:47:07.281Z,992.28
2019-05-07T01:48:07.308Z,992.25
2019-05-07T01:49:07.281Z,992.30
2019-05-07T01:50:07.248Z,992.27
2019-05-07T01:51:07.245Z,992.23
2019-05-07T01:52:07.245Z,992.21
2019-05-07T01:53:07.229Z,992.22
2019-05-07T01:54:07.238Z,992.26
2019-05-07T01:55:07.229Z,992.29
2019-05-07T01:56:07.193Z,992.22
2019-05-07T01:57:07.184Z,992.24
2019-05-07T01:58:07.164Z,992.22
2019-05-07T01:59:07.196Z,992.20
2019-05-07T02:00:07.151Z,992.24
2019-05-07T02:01:07.144Z,992.22
2019-05-07T02:02:07.124Z,992.20
2019-05-07T02:03:07.128Z,992.19
2019-05-07T02:04:07.118Z,992.20
2019-05-07T02:05:07.116Z,992.17
2019-05-07T02:06:07.079Z,992.20
2019-05-07T02:07:07.095Z,992.15
2019-05-07T02:08:07.071Z,992.17
2019-05-07T02:09:10.135Z,992.18
2019-05-07T02:10:07.046Z,992.11
2019-05-07T02:11:07.034Z,992.11
2019-05-07T02:12:07.035Z,992.14
2019-05-07T02:13:07.012Z,992.14
2019-05-07T02:14:07.028Z,992.15
2019-05-07T02:15:07.002Z,992.10
2019-05-07T02:16:06.986Z,992.15
2019-05-07T02:17:06.991Z,992.16
2019-05-07T02:18:06.960Z,992.13
2019-05-07T02:19:06.962Z,992.10
2019-05-07T02:20:06.951Z,992.15
2019-05-07T02:21:06.946Z,992.14
2019-05-07T02:22:06.922Z,992.19
2019-05-07T02:23:06.918Z,992.14
2019-05-07T02:24:06.893Z,992.15
2019-05-07T02:25:07.001Z,992.18
2019-05-07T02:26:06.873Z,992.17
2019-05-07T02:27:06.860Z,992.16
2019-05-07T02:28:06.888Z,992.15
2019-05-07T02:29:06.841Z,992.14
2019-05-07T02:30:06.850Z,992.17
2019-05-07T02:31:06.813Z,992.13
2019-05-07T02:32:06.818Z,992.13
2019-05-07T02:33:06.843Z,992.08
2019-05-07T02:34:06.800Z,992.10
2019-05-07T02:35:06.791Z,992.08
2019-05-07T02:36:06.790Z,992.08
2019-05-07T02:37:06.770Z,992.07
2019-05-07T02:38:06.749Z,992.09
2019-05-07T02:39:06.731Z,992.10
2019-05-07T02:40:06.770Z,992.08
2019-05-07T02:41:06.748Z,992.07
2019-05-07T02:42:06.702Z,992.06
2019-05-07T02:43:06.696Z,992.07
2019-05-07T02:44:06.708Z,992.06
2019-05-07T02:45:06.695Z,992.06
2019-05-07T02:46:20.771Z,992.07
2019-05-07T02:47:07.653Z,992.03
2019-05-07T02:48:06.668Z,992.05
2019-05-07T02:49:06.630Z,992.07
2019-05-07T02:50:06.634Z,992.06
2019-05-07T02:51:06.621Z,992.03
2019-05-07T02:52:06.594Z,992.05
2019-05-07T02:53:06.587Z,992.03
2019-05-07T02:54:06.572Z,992.09
2019-05-07T02:55:06.573Z,992.06
2019-05-07T02:56:06.618Z,992.10
2019-05-07T02:57:06.594Z,992.10
2019-05-07T02:58:06.555Z,992.09
2019-05-07T02:59:06.535Z,992.13
2019-05-07T03:00:06.521Z,992.11
2019-05-07T03:01:06.511Z,992.11
2019-05-07T03:02:06.488Z,992.14
2019-05-07T03:03:06.511Z,992.13
2019-05-07T03:04:06.469Z,992.14
2019-05-07T03:05:06.459Z,992.13
2019-05-07T03:06:06.475Z,992.13
2019-05-07T03:07:06.674Z,992.15
2019-05-07T03:08:06.440Z,992.09
2019-05-07T03:09:06.428Z,992.07
2019-05-07T03:10:06.419Z,992.09
2019-05-07T03:11:06.463Z,992.08
2019-05-07T03:12:06.394Z,992.11
2019-05-07T03:13:06.378Z,992.06
2019-05-07T03:14:06.364Z,992.10
2019-05-07T03:15:06.357Z,992.12
2019-05-07T03:16:06.350Z,992.15
2019-05-07T03:17:06.347Z,992.10
2019-05-07T03:18:06.322Z,992.10
2019-05-07T03:19:06.321Z,992.09
2019-05-07T03:20:06.305Z,992.11
2019-05-07T03:21:06.298Z,992.11
2019-05-07T03:22:06.287Z,992.14
2019-05-07T03:23:06.286Z,992.14
2019-05-07T03:24:06.272Z,992.14
2019-05-07T03:25:06.249Z,992.12
2019-05-07T03:26:06.253Z,992.16
2019-05-07T03:27:06.271Z,992.15
2019-05-07T03:28:06.443Z,992.12
2019-05-07T03:29:06.206Z,992.09
2019-05-07T03:30:06.198Z,992.12
2019-05-07T03:31:06.537Z,992.12
2019-05-07T03:32:06.574Z,992.11
2019-05-07T03:33:07.267Z,992.13
2019-05-07T03:34:07.331Z,992.09
2019-05-07T03:35:07.420Z,992.10
2019-05-07T03:36:07.564Z,992.11
2019-05-07T03:37:06.775Z,992.11
2019-05-07T03:38:06.145Z,992.08
2019-05-07T03:39:06.111Z,992.07
2019-05-07T03:40:06.111Z,992.07
2019-05-07T03:41:06.131Z,992.04
2019-05-07T03:42:06.072Z,992.05
2019-05-07T03:43:06.570Z,992.05
2019-05-07T03:44:06.052Z,992.03
2019-05-07T03:45:06.062Z,992.05
2019-05-07T03:46:06.044Z,992.08
2019-05-07T03:47:06.454Z,992.08
2019-05-07T03:48:06.018Z,992.09
2019-05-07T03:49:06.233Z,992.13
2019-05-07T03:50:05.994Z,992.15
2019-05-07T03:51:05.977Z,992.12
2019-05-07T03:52:05.986Z,992.14
2019-05-07T03:53:05.966Z,992.16
2019-05-07T03:54:05.956Z,992.14
2019-05-07T03:55:05.940Z,992.09
2019-05-07T03:56:05.925Z,992.10
2019-05-07T03:57:11.344Z,992.16
2019-05-07T03:58:06.896Z,992.10
2019-05-07T03:59:05.881Z,992.09
2019-05-07T04:00:05.883Z,992.08
2019-05-07T04:01:05.890Z,992.10
2019-05-07T04:02:05.889Z,992.08
2019-05-07T04:03:05.844Z,992.04
2019-05-07T04:04:05.834Z,992.04
2019-05-07T04:05:05.814Z,992.05
2019-05-07T04:06:05.815Z,992.07
2019-05-07T04:07:05.820Z,992.08
2019-05-07T04:08:05.808Z,992.05
2019-05-07T04:09:05.785Z,992.07
2019-05-07T04:10:09.698Z,992.06
2019-05-07T04:11:05.759Z,992.04
2019-05-07T04:12:05.760Z,992.06
2019-05-07T04:13:05.729Z,992.08
2019-05-07T04:14:05.718Z,992.06
2019-05-07T04:15:05.723Z,992.09
2019-05-07T04:16:05.716Z,992.04
2019-05-07T04:17:21.189Z,992.09
2019-05-07T04:18:06.691Z,992.05
2019-05-07T04:19:05.674Z,992.04
2019-05-07T04:20:05.665Z,992.10
2019-05-07T04:21:05.665Z,992.08
2019-05-07T04:22:05.651Z,992.05
2019-05-07T04:23:05.669Z,992.05
2019-05-07T04:24:05.653Z,992.06
2019-05-07T04:25:05.613Z,992.05
2019-05-07T04:26:05.601Z,992.06
2019-05-07T04:27:05.590Z,992.06
2019-05-07T04:28:05.609Z,992.05
2019-05-07T04:29:06.375Z,992.00
2019-05-07T04:30:05.576Z,992.02
2019-05-07T04:31:05.559Z,992.00
2019-05-07T04:32:05.550Z,992.05
2019-05-07T04:33:05.524Z,992.00
2019-05-07T04:34:05.512Z,992.04
2019-05-07T04:35:05.515Z,991.99
2019-05-07T04:36:05.540Z,992.03
2019-05-07T04:37:05.507Z,992.05
2019-05-07T04:38:06.991Z,992.05
2019-05-07T04:39:05.447Z,992.06
2019-05-07T04:40:05.449Z,992.02
2019-05-07T04:41:05.427Z,992.05
2019-05-07T04:42:05.421Z,992.02
2019-05-07T04:43:05.427Z,991.98
2019-05-07T04:44:05.413Z,992.02
2019-05-07T04:45:05.398Z,992.01
2019-05-07T04:46:05.383Z,991.99
2019-05-07T04:47:05.386Z,991.96
2019-05-07T04:48:05.370Z,991.98
2019-05-07T04:49:05.359Z,992.04
2019-05-07T04:50:05.340Z,992.03
2019-05-07T04:51:05.327Z,991.98
2019-05-07T04:52:05.343Z,992.03
2019-05-07T04:53:05.308Z,992.02
2019-05-07T04:54:05.316Z,992.03
2019-05-07T04:55:05.308Z,991.97
2019-05-07T04:56:05.282Z,991.98
2019-05-07T04:57:05.272Z,991.95
2019-05-07T04:58:08.843Z,991.95
2019-05-07T04:59:05.236Z,991.98
2019-05-07T05:00:05.242Z,991.94
2019-05-07T05:01:05.210Z,991.91
2019-05-07T05:02:05.203Z,991.93
2019-05-07T05:03:05.248Z,991.97
2019-05-07T05:04:24.496Z,991.97
2019-05-07T05:05:06.180Z,991.97
2019-05-07T05:06:05.162Z,991.97
2019-05-07T05:07:05.162Z,992.02
2019-05-07T05:08:05.183Z,991.97
2019-05-07T05:09:05.226Z,991.95
2019-05-07T05:10:05.150Z,991.95
2019-05-07T05:11:05.115Z,991.94
2019-05-07T05:12:05.105Z,991.95
2019-05-07T05:13:05.114Z,991.99
2019-05-07T05:14:07.708Z,991.94
2019-05-07T05:15:05.076Z,991.94
2019-05-07T05:16:05.085Z,991.94
2019-05-07T05:17:05.071Z,991.96
2019-05-07T05:18:05.046Z,991.94
2019-05-07T05:19:05.073Z,991.90
2019-05-07T05:20:05.028Z,991.92
2019-05-07T05:21:04.997Z,991.95
2019-05-07T05:22:05.039Z,991.91
2019-05-07T05:23:04.995Z,991.89
2019-05-07T05:24:04.992Z,991.90
2019-05-07T05:25:04.981Z,991.93
2019-05-07T05:26:04.954Z,991.85
2019-05-07T05:27:04.949Z,991.86
2019-05-07T05:28:04.952Z,991.89
2019-05-07T05:29:04.918Z,991.89
2019-05-07T05:30:04.920Z,991.90
2019-05-07T05:31:04.906Z,991.91
2019-05-07T05:32:04.881Z,991.90
2019-05-07T05:33:04.881Z,991.91
2019-05-07T05:34:04.879Z,991.96
2019-05-07T05:35:04.898Z,991.96
2019-05-07T05:36:04.842Z,991.94
2019-05-07T05:37:04.828Z,991.95
2019-05-07T05:38:04.841Z,991.98
2019-05-07T05:39:04.831Z,991.96
2019-05-07T05:40:08.691Z,991.93
2019-05-07T05:41:04.797Z,991.96
2019-05-07T05:42:04.794Z,991.91
2019-05-07T05:43:04.764Z,991.93
2019-05-07T05:44:04.793Z,992.00
2019-05-07T05:45:04.768Z,991.95
2019-05-07T05:46:04.747Z,991.98
2019-05-07T05:47:04.750Z,991.97
2019-05-07T05:48:08.241Z,991.99
2019-05-07T05:49:04.718Z,992.01
2019-05-07T05:50:04.691Z,991.95
2019-05-07T05:51:04.677Z,991.99
2019-05-07T05:52:04.714Z,991.95
2019-05-07T05:53:04.667Z,991.90
2019-05-07T05:54:04.666Z,991.94
2019-05-07T05:55:04.636Z,991.97
2019-05-07T05:56:04.638Z,991.96
2019-05-07T05:57:04.709Z,991.98
2019-05-07T05:58:04.625Z,991.90
2019-05-07T05:59:04.615Z,991.91
2019-05-07T06:00:04.585Z,991.92
2019-05-07T06:01:04.592Z,991.88
2019-05-07T06:02:06.595Z,991.90
2019-05-07T06:03:04.551Z,991.91
2019-05-07T06:04:04.556Z,991.87
2019-05-07T06:05:04.568Z,991.89
2019-05-07T06:06:04.519Z,991.89
2019-05-07T06:07:10.760Z,991.90
2019-05-07T06:08:05.502Z,991.81
2019-05-07T06:09:04.502Z,991.83
2019-05-07T06:10:04.475Z,991.82
2019-05-07T06:11:04.492Z,991.84
2019-05-07T06:12:04.462Z,991.82
2019-05-07T06:13:04.461Z,991.78
2019-05-07T06:14:04.449Z,991.81
2019-05-07T06:15:04.432Z,991.83
2019-05-07T06:16:04.421Z,991.80
2019-05-07T06:17:04.449Z,991.81
2019-05-07T06:18:17.898Z,991.77
2019-05-07T06:19:05.401Z,991.84
2019-05-07T06:20:04.382Z,991.82
2019-05-07T06:21:04.367Z,991.84
2019-05-07T06:22:04.357Z,991.81
2019-05-07T06:23:04.378Z,991.79
2019-05-07T06:24:04.345Z,991.81
2019-05-07T06:25:04.321Z,991.82
2019-05-07T06:26:05.278Z,991.84
2019-05-07T06:27:04.303Z,991.86
2019-05-07T06:28:04.285Z,991.85
2019-05-07T06:29:04.298Z,991.83
2019-05-07T06:30:05.005Z,991.84
2019-05-07T06:31:04.279Z,991.86
2019-05-07T06:32:04.247Z,991.86
2019-05-07T06:33:04.233Z,991.79
2019-05-07T06:34:04.266Z,991.86
2019-05-07T06:35:04.264Z,991.84
2019-05-07T06:36:04.219Z,991.86
2019-05-07T06:37:04.231Z,991.80
2019-05-07T06:38:04.233Z,991.85
2019-05-07T06:39:04.191Z,991.85
2019-05-07T06:40:04.160Z,991.89
2019-05-07T06:41:04.168Z,991.85
2019-05-07T06:42:04.141Z,991.88
2019-05-07T06:43:04.149Z,991.85
2019-05-07T06:44:04.179Z,991.89
2019-05-07T06:45:04.112Z,991.91
2019-05-07T06:46:04.119Z,991.88
2019-05-07T06:47:04.126Z,991.90
2019-05-07T06:48:04.075Z,991.87
2019-05-07T06:49:04.077Z,991.88
2019-05-07T06:50:04.061Z,991.92
2019-05-07T06:51:04.060Z,991.92
2019-05-07T06:52:04.069Z,991.88
2019-05-07T06:53:04.033Z,991.88
2019-05-07T06:54:04.034Z,991.88
2019-05-07T06:55:04.033Z,991.89
2019-05-07T06:56:03.994Z,991.92
2019-05-07T06:57:03.977Z,991.90
2019-05-07T06:58:03.965Z,991.87
2019-05-07T06:59:04.181Z,991.87
2019-05-07T07:00:03.969Z,991.86
2019-05-07T07:01:03.949Z,991.89
2019-05-07T07:02:05.669Z,991.90
2019-05-07T07:03:03.913Z,991.90
2019-05-07T07:04:03.909Z,991.91
2019-05-07T07:05:03.908Z,991.91
2019-05-07T07:06:03.878Z,991.87
2019-05-07T07:07:03.905Z,991.88
2019-05-07T07:08:03.862Z,991.88
2019-05-07T07:09:03.866Z,991.86
2019-05-07T07:10:03.869Z,991.86
2019-05-07T07:11:03.867Z,991.87
2019-05-07T07:12:03.821Z,991.84
2019-05-07T07:13:03.829Z,991.79
2019-05-07T07:14:03.796Z,991.79
2019-05-07T07:15:03.798Z,991.74
2019-05-07T07:16:03.776Z,991.74
2019-05-07T07:17:03.765Z,991.80
2019-05-07T07:18:03.755Z,991.80
2019-05-07T07:19:03.750Z,991.78
2019-05-07T07:20:03.845Z,991.78
2019-05-07T07:21:03.719Z,991.76
2019-05-07T07:22:03.714Z,991.71
2019-05-07T07:23:03.702Z,991.73
2019-05-07T07:24:03.718Z,991.71
2019-05-07T07:25:06.451Z,991.67
2019-05-07T07:26:03.676Z,991.72
2019-05-07T07:27:03.667Z,991.70
2019-05-07T07:28:03.667Z,991.68
2019-05-07T07:29:03.635Z,991.63
2019-05-07T07:30:03.657Z,991.64
2019-05-07T07:31:03.621Z,991.62
2019-05-07T07:32:03.598Z,991.58
2019-05-07T07:33:03.590Z,991.64
2019-05-07T07:34:03.597Z,991.61
2019-05-07T07:35:03.586Z,991.56
2019-05-07T07:36:03.559Z,991.61
2019-05-07T07:37:09.023Z,991.59
2019-05-07T07:38:04.539Z,991.60
2019-05-07T07:39:03.555Z,991.56
2019-05-07T07:40:03.537Z,991.57
2019-05-07T07:41:05.423Z,991.58
2019-05-07T07:42:03.514Z,991.58
2019-05-07T07:43:06.780Z,991.58
2019-05-07T07:44:03.504Z,991.55
2019-05-07T07:45:03.503Z,991.60
2019-05-07T07:46:03.459Z,991.59
2019-05-07T07:47:03.454Z,991.56
2019-05-07T07:48:03.429Z,991.52
2019-05-07T07:49:10.672Z,991.54
2019-05-07T07:50:04.442Z,991.51
2019-05-07T07:51:03.567Z,991.53
2019-05-07T07:52:03.429Z,991.53
2019-05-07T07:53:03.400Z,991.50
2019-05-07T07:54:03.374Z,991.49
2019-05-07T07:55:03.356Z,991.52
2019-05-07T07:56:03.397Z,991.48
2019-05-07T07:57:03.359Z,991.48
2019-05-07T07:58:03.328Z,991.44
2019-05-07T07:59:03.344Z,991.50
2019-05-07T08:00:03.310Z,991.46
2019-05-07T08:01:03.307Z,991.47
2019-05-07T08:02:03.330Z,991.49
2019-05-07T08:03:03.303Z,991.51
2019-05-07T08:04:03.276Z,991.52
2019-05-07T08:05:03.253Z,991.47
2019-05-07T08:06:03.272Z,991.47
2019-05-07T08:07:03.355Z,991.49
2019-05-07T08:08:03.229Z,991.50
2019-05-07T08:09:07.507Z,991.48
2019-05-07T08:10:05.733Z,991.41
2019-05-07T08:11:42.754Z,991.43
2019-05-07T08:12:03.316Z,991.42
2019-05-07T08:13:03.159Z,991.43
2019-05-07T08:14:03.152Z,991.40
2019-05-07T08:15:14.667Z,991.39
2019-05-07T08:16:04.161Z,991.41
2019-05-07T08:17:03.117Z,991.42
2019-05-07T08:18:03.112Z,991.43
2019-05-07T08:19:03.106Z,991.39
2019-05-07T08:20:03.097Z,991.46
2019-05-07T08:21:03.099Z,991.45
2019-05-07T08:22:03.198Z,991.46
2019-05-07T08:23:03.141Z,991.44
2019-05-07T08:24:03.057Z,991.44
2019-05-07T08:25:03.056Z,991.41
2019-05-07T08:26:03.048Z,991.41
2019-05-07T08:27:03.020Z,991.39
2019-05-07T08:28:03.038Z,991.38
2019-05-07T08:29:03.070Z,991.41
2019-05-07T08:30:03.054Z,991.37
2019-05-07T08:31:03.085Z,991.36
2019-05-07T08:32:03.035Z,991.33
2019-05-07T08:33:02.968Z,991.34
2019-05-07T08:34:02.949Z,991.33
2019-05-07T08:35:02.960Z,991.36
2019-05-07T08:36:02.920Z,991.35
2019-05-07T08:37:02.922Z,991.36
2019-05-07T08:38:02.943Z,991.33
2019-05-07T08:39:02.916Z,991.36
2019-05-07T08:40:03.220Z,991.35
2019-05-07T08:41:02.902Z,991.33
2019-05-07T08:42:02.867Z,991.32
2019-05-07T08:43:03.355Z,991.35
2019-05-07T08:44:11.488Z,991.31
2019-05-07T08:45:03.900Z,991.35
2019-05-07T08:46:02.829Z,991.31
2019-05-07T08:47:02.858Z,991.30
2019-05-07T08:48:02.795Z,991.32
2019-05-07T08:49:02.779Z,991.29
2019-05-07T08:50:02.983Z,991.30
2019-05-07T08:51:02.774Z,991.34
2019-05-07T08:52:03.778Z,991.28
2019-05-07T08:53:02.879Z,991.30
2019-05-07T08:54:02.726Z,991.26
2019-05-07T08:55:02.719Z,991.24
2019-05-07T08:56:03.288Z,991.22
2019-05-07T08:57:02.714Z,991.25
2019-05-07T08:58:02.700Z,991.27
2019-05-07T08:59:02.679Z,991.26
2019-05-07T09:00:04.723Z,991.29
2019-05-07T09:01:03.177Z,991.24
2019-05-07T09:02:03.094Z,991.24
2019-05-07T09:03:02.632Z,991.21
2019-05-07T09:04:02.623Z,991.24
2019-05-07T09:05:03.103Z,991.23
2019-05-07T09:06:02.597Z,991.26
2019-05-07T09:07:02.920Z,991.26
2019-05-07T09:08:02.582Z,991.28
2019-05-07T09:09:02.582Z,991.28
2019-05-07T09:10:02.690Z,991.23
2019-05-07T09:11:02.539Z,991.29
2019-05-07T09:12:03.143Z,991.23
2019-05-07T09:13:02.890Z,991.24
2019-05-07T09:14:02.514Z,991.25
2019-05-07T09:15:02.548Z,991.20
2019-05-07T09:16:02.523Z,991.25
2019-05-07T09:17:02.935Z,991.27
2019-05-07T09:18:02.469Z,991.24
2019-05-07T09:19:02.449Z,991.22
2019-05-07T09:20:02.741Z,991.15
2019-05-07T09:21:02.435Z,991.18
2019-05-07T09:22:02.438Z,991.14
2019-05-07T09:23:02.448Z,991.17
2019-05-07T09:24:02.593Z,991.17
2019-05-07T09:25:03.078Z,991.13
2019-05-07T09:26:02.830Z,991.08
2019-05-07T09:27:02.770Z,991.07
2019-05-07T09:28:02.716Z,991.06
2019-05-07T09:29:02.695Z,991.07
2019-05-07T09:30:02.805Z,991.05
2019-05-07T09:31:02.325Z,991.09
2019-05-07T09:32:03.055Z,991.08
2019-05-07T09:33:02.600Z,991.08
2019-05-07T09:34:02.691Z,991.13
2019-05-07T09:35:02.446Z,991.10
2019-05-07T09:36:02.407Z,991.05
2019-05-07T09:37:02.468Z,991.07
2019-05-07T09:38:03.160Z,991.09
2019-05-07T09:39:02.795Z,991.05
2019-05-07T09:40:02.813Z,991.06
2019-05-07T09:41:02.768Z,991.05
2019-05-07T09:42:02.300Z,991.03
2019-05-07T09:43:02.609Z,991.02
2019-05-07T09:44:03.190Z,991.08
2019-05-07T09:45:02.222Z,991.07
2019-05-07T09:46:02.681Z,991.02
2019-05-07T09:47:02.735Z,991.07
2019-05-07T09:48:02.822Z,991.09
2019-05-07T09:49:03.058Z,991.06
2019-05-07T09:50:07.163Z,991.05
2019-05-07T09:51:03.132Z,991.04
2019-05-07T09:52:03.248Z,991.04
2019-05-07T09:53:02.404Z,991.04
2019-05-07T09:54:02.534Z,991.05
2019-05-07T09:55:11.069Z,991.07
2019-05-07T09:56:03.053Z,991.08
2019-05-07T09:57:02.069Z,991.12
2019-05-07T09:58:02.219Z,991.04
2019-05-07T09:59:02.276Z,991.07
2019-05-07T10:00:02.368Z,991.09
2019-05-07T10:01:02.192Z,991.06
2019-05-07T10:02:02.031Z,991.01
2019-05-07T10:03:02.001Z,990.99
2019-05-07T10:04:02.623Z,990.99
2019-05-07T10:05:02.515Z,991.01
2019-05-07T10:06:02.371Z,991.01
2019-05-07T10:07:02.538Z,991.02
2019-05-07T10:08:02.050Z,991.02
2019-05-07T10:09:02.841Z,990.93
2019-05-07T10:10:03.228Z,990.93
2019-05-07T10:11:02.706Z,990.94
2019-05-07T10:12:02.782Z,990.90
2019-05-07T10:13:01.987Z,990.93
2019-05-07T10:14:02.031Z,990.95
2019-05-07T10:15:03.094Z,990.90
2019-05-07T10:16:03.850Z,990.92
2019-05-07T10:17:02.768Z,990.92
2019-05-07T10:18:01.939Z,990.86
2019-05-07T10:19:01.825Z,990.81
2019-05-07T10:20:04.434Z,990.82
2019-05-07T10:21:02.824Z,990.79
2019-05-07T10:22:02.346Z,990.84
2019-05-07T10:23:02.465Z,990.80
2019-05-07T10:24:02.380Z,990.79
2019-05-07T10:25:02.875Z,990.79
2019-05-07T10:26:01.884Z,990.81
2019-05-07T10:27:02.283Z,990.86
2019-05-07T10:28:02.024Z,990.83
2019-05-07T10:29:02.209Z,990.84
2019-05-07T10:30:02.370Z,990.78
2019-05-07T10:31:01.684Z,990.79
2019-05-07T10:32:02.208Z,990.75
2019-05-07T10:33:01.837Z,990.71
2019-05-07T10:34:03.042Z,990.75
2019-05-07T10:35:02.243Z,990.77
2019-05-07T10:36:02.143Z,990.78
2019-05-07T10:37:02.689Z,990.77
2019-05-07T10:38:02.042Z,990.75
2019-05-07T10:39:02.520Z,990.73
2019-05-07T10:40:03.131Z,990.79
2019-05-07T10:41:02.834Z,990.74
2019-05-07T10:42:01.898Z,990.75
2019-05-07T10:43:01.550Z,990.76
2019-05-07T10:44:02.545Z,990.73
2019-05-07T10:45:03.091Z,990.81
2019-05-07T10:46:02.358Z,990.80
2019-05-07T10:47:01.996Z,990.75
2019-05-07T10:48:02.524Z,990.73
2019-05-07T10:49:01.957Z,990.73
2019-05-07T10:50:02.878Z,990.71
2019-05-07T10:51:02.147Z,990.77
2019-05-07T10:52:02.142Z,990.77
2019-05-07T10:53:02.065Z,990.75
2019-05-07T10:54:02.252Z,990.78
2019-05-07T10:55:02.925Z,990.78
2019-05-07T10:56:02.670Z,990.77
2019-05-07T10:57:01.424Z,990.72
2019-05-07T10:58:03.027Z,990.71
2019-05-07T10:59:02.903Z,990.74
2019-05-07T11:00:03.169Z,990.71
2019-05-07T11:01:02.900Z,990.69
2019-05-07T11:02:02.447Z,990.69
2019-05-07T11:03:02.393Z,990.63
2019-05-07T11:04:02.231Z,990.66
2019-05-07T11:05:02.317Z,990.65
2019-05-07T11:06:01.308Z,990.65
2019-05-07T11:07:01.290Z,990.68
2019-05-07T11:08:02.084Z,990.67
2019-05-07T11:09:01.282Z,990.68
2019-05-07T11:10:01.951Z,990.66
2019-05-07T11:11:02.943Z,990.72
2019-05-07T11:12:02.584Z,990.73
2019-05-07T11:13:02.351Z,990.71
2019-05-07T11:14:01.958Z,990.70
2019-05-07T11:15:02.194Z,990.71
2019-05-07T11:16:02.423Z,990.66
2019-05-07T11:17:02.603Z,990.69
2019-05-07T11:18:02.702Z,990.63
2019-05-07T11:19:02.033Z,990.65
2019-05-07T11:20:01.162Z,990.64
2019-05-07T11:21:03.098Z,990.64
2019-05-07T11:22:01.141Z,990.62
2019-05-07T11:23:02.661Z,990.65
2019-05-07T11:24:03.249Z,990.62
2019-05-07T11:25:03.010Z,990.62
2019-05-07T11:26:02.602Z,990.63
2019-05-07T11:27:02.419Z,990.61
2019-05-07T11:28:02.865Z,990.60
2019-05-07T11:29:02.389Z,990.63
2019-05-07T11:30:02.694Z,990.55
2019-05-07T11:31:02.115Z,990.51
2019-05-07T11:32:01.032Z,990.50
2019-05-07T11:33:02.723Z,990.49
2019-05-07T11:34:02.775Z,990.51
2019-05-07T11:35:02.962Z,990.46
2019-05-07T11:36:02.139Z,990.41
2019-05-07T11:37:02.431Z,990.41
2019-05-07T11:38:10.980Z,990.43
2019-05-07T11:39:01.985Z,990.38
2019-05-07T11:40:03.029Z,990.37
2019-05-07T11:41:02.283Z,990.37
2019-05-07T11:42:02.382Z,990.38
2019-05-07T11:43:02.460Z,990.39
2019-05-07T11:44:01.791Z,990.38
2019-05-07T11:45:02.170Z,990.38
2019-05-07T11:46:02.003Z,990.40
2019-05-07T11:47:02.985Z,990.31
2019-05-07T11:48:01.890Z,990.33
2019-05-07T11:49:00.847Z,990.28
2019-05-07T11:50:03.060Z,990.29
2019-05-07T11:51:04.120Z,990.28
2019-05-07T11:52:00.846Z,990.29
2019-05-07T11:53:00.803Z,990.30
2019-05-07T11:54:02.107Z,990.24
2019-05-07T11:55:03.016Z,990.23
2019-05-07T11:56:02.522Z,990.19
2019-05-07T11:57:02.671Z,990.16
2019-05-07T11:58:02.433Z,990.14
2019-05-07T11:59:02.661Z,990.17
2019-05-07T12:00:02.797Z,990.13
2019-05-07T12:01:03.671Z,990.13
2019-05-07T12:02:00.713Z,990.11
2019-05-07T12:03:02.286Z,990.09
2019-05-07T12:04:01.995Z,990.12
2019-05-07T12:05:02.019Z,990.11
2019-05-07T12:06:02.100Z,990.15
2019-05-07T12:07:02.590Z,990.11
2019-05-07T12:08:02.346Z,990.14
2019-05-07T12:09:02.874Z,990.06
2019-05-07T12:10:04.669Z,990.10
2019-05-07T12:11:02.337Z,990.06
2019-05-07T12:12:02.388Z,990.09
2019-05-07T12:13:02.395Z,990.06
2019-05-07T12:14:02.077Z,990.05
2019-05-07T12:15:02.451Z,990.04
2019-05-07T12:16:02.723Z,990.00
2019-05-07T12:17:02.581Z,990.04
2019-05-07T12:18:02.764Z,990.05
2019-05-07T12:19:02.225Z,990.09
2019-05-07T12:20:02.342Z,990.02
2019-05-07T12:21:03.754Z,990.00
2019-05-07T12:22:02.739Z,989.99
2019-05-07T12:23:02.612Z,989.99
2019-05-07T12:24:02.116Z,989.97
2019-05-07T12:25:02.507Z,989.98
2019-05-07T12:26:02.287Z,989.99
2019-05-07T12:27:02.498Z,989.96
2019-05-07T12:28:02.439Z,989.96